sensor_id;sensor_type;location;lat;lon;timestamp;temperature;humidity
13642;DHT22;6894;52.196;9.904;2024-03-17T00:02:02;5.60;1.00
13642;DHT22;6894;52.196;9.904;2024-03-17T00:04:30;5.50;1.00
13642;DHT22;6894;52.196;9.904;2024-03-17T00:06:57;5.60;1.00
13642;DHT22;6894;52.196;9.904;2024-03-17T00:09:23;5.50;1.00
13642;DHT22;6894;52.196;9.904;2024-03-17T00:11:50;5.50;1.00
13642;DHT22;6894;52.196;9.904;2024-03-17T00:14:16;5.30;1.00
13642;DHT22;6894;52.196;9.904;2024-03-17T00:16:43;5.20;1.00
13642;DHT22;6894;52.196;9.904;2024-03-17T00:19:09;5.10;99.90
13642;DHT22;6894;52.196;9.904;2024-03-17T00:21:38;5.00;99.90
13642;DHT22;6894;52.196;9.904;2024-03-17T00:24:05;4.90;99.90
13642;DHT22;6894;52.196;9.904;2024-03-17T00:26:33;4.90;99.90
13642;DHT22;6894;52.196;9.904;2024-03-17T00:28:59;4.80;99.90
13642;DHT22;6894;52.196;9.904;2024-03-17T00:31:28;4.70;1.00
13642;DHT22;6894;52.196;9.904;2024-03-17T00:33:54;4.70;1.00
13642;DHT22;6894;52.196;9.904;2024-03-17T00:36:21;4.70;1.00
13642;DHT22;6894;52.196;9.904;2024-03-17T00:38:49;4.70;1.00
13642;DHT22;6894;52.196;9.904;2024-03-17T00:41:17;4.80;99.70
13642;DHT22;6894;52.196;9.904;2024-03-17T00:43:44;4.80;99.90
13642;DHT22;6894;52.196;9.904;2024-03-17T00:46:10;4.80;99.90
13642;DHT22;6894;52.196;9.904;2024-03-17T00:48:37;4.80;75.90
13642;DHT22;6894;52.196;9.904;2024-03-17T00:51:04;4.80;99.90
13642;DHT22;6894;52.196;9.904;2024-03-17T00:53:30;4.80;99.90
13642;DHT22;6894;52.196;9.904;2024-03-17T00:55:58;4.70;99.90
13642;DHT22;6894;52.196;9.904;2024-03-17T00:58:25;4.80;99.90
13642;DHT22;6894;52.196;9.904;2024-03-17T01:00:51;4.70;99.90
13642;DHT22;6894;52.196;9.904;2024-03-17T01:03:18;4.60;99.90
13642;DHT22;6894;52.196;9.904;2024-03-17T01:05:45;4.60;99.90
13642;DHT22;6894;52.196;9.904;2024-03-17T01:08:13;4.60;1.00
13642;DHT22;6894;52.196;9.904;2024-03-17T01:10:41;4.70;1.00
13642;DHT22;6894;52.196;9.904;2024-03-17T01:13:08;4.70;1.00
13642;DHT22;6894;52.196;9.904;2024-03-17T01:15:36;4.70;25.00
13642;DHT22;6894;52.196;9.904;2024-03-17T01:18:02;4.70;44.40
13642;DHT22;6894;52.196;9.904;2024-03-17T01:20:30;4.80;1.00
13642;DHT22;6894;52.196;9.904;2024-03-17T01:22:56;4.70;1.00
13642;DHT22;6894;52.196;9.904;2024-03-17T01:25:22;4.80;99.90
13642;DHT22;6894;52.196;9.904;2024-03-17T01:27:49;4.80;99.90
13642;DHT22;6894;52.196;9.904;2024-03-17T01:30:18;4.80;99.90
13642;DHT22;6894;52.196;9.904;2024-03-17T01:32:44;4.80;99.90
13642;DHT22;6894;52.196;9.904;2024-03-17T01:35:11;4.80;99.90
13642;DHT22;6894;52.196;9.904;2024-03-17T01:37:37;4.80;1.00
13642;DHT22;6894;52.196;9.904;2024-03-17T01:40:06;4.90;99.90
13642;DHT22;6894;52.196;9.904;2024-03-17T01:42:33;4.90;1.00
13642;DHT22;6894;52.196;9.904;2024-03-17T01:45:00;4.90;99.90
13642;DHT22;6894;52.196;9.904;2024-03-17T01:47:28;4.90;99.90
13642;DHT22;6894;52.196;9.904;2024-03-17T01:49:55;4.80;99.90
13642;DHT22;6894;52.196;9.904;2024-03-17T01:52:21;4.70;99.90
13642;DHT22;6894;52.196;9.904;2024-03-17T01:54:48;4.70;99.90
13642;DHT22;6894;52.196;9.904;2024-03-17T01:57:14;4.70;96.00
13642;DHT22;6894;52.196;9.904;2024-03-17T01:59:41;4.50;1.00
13642;DHT22;6894;52.196;9.904;2024-03-17T02:02:07;4.50;1.00
13642;DHT22;6894;52.196;9.904;2024-03-17T02:04:35;4.40;1.00
13642;DHT22;6894;52.196;9.904;2024-03-17T02:07:01;4.30;1.00
13642;DHT22;6894;52.196;9.904;2024-03-17T02:09:28;4.30;1.00
13642;DHT22;6894;52.196;9.904;2024-03-17T02:11:54;4.10;1.00
13642;DHT22;6894;52.196;9.904;2024-03-17T02:14:21;4.10;1.00
13642;DHT22;6894;52.196;9.904;2024-03-17T02:16:47;4.10;99.90
13642;DHT22;6894;52.196;9.904;2024-03-17T02:19:14;4.20;99.90
13642;DHT22;6894;52.196;9.904;2024-03-17T02:21:41;4.20;1.00
13642;DHT22;6894;52.196;9.904;2024-03-17T02:24:10;4.30;1.00
13642;DHT22;6894;52.196;9.904;2024-03-17T02:26:35;4.30;1.00
13642;DHT22;6894;52.196;9.904;2024-03-17T02:29:04;4.30;99.90
13642;DHT22;6894;52.196;9.904;2024-03-17T02:31:30;4.40;99.90
13642;DHT22;6894;52.196;9.904;2024-03-17T02:33:56;4.30;99.90
13642;DHT22;6894;52.196;9.904;2024-03-17T02:36:22;4.30;56.30
13642;DHT22;6894;52.196;9.904;2024-03-17T02:38:49;4.20;1.00
13642;DHT22;6894;52.196;9.904;2024-03-17T02:41:35;4.10;1.00
13642;DHT22;6894;52.196;9.904;2024-03-17T02:44:02;4.10;1.00
13642;DHT22;6894;52.196;9.904;2024-03-17T02:46:29;4.10;1.00
13642;DHT22;6894;52.196;9.904;2024-03-17T02:48:56;4.10;99.90
13642;DHT22;6894;52.196;9.904;2024-03-17T02:51:23;4.00;99.90
13642;DHT22;6894;52.196;9.904;2024-03-17T02:53:50;4.00;99.90
13642;DHT22;6894;52.196;9.904;2024-03-17T02:56:18;4.00;99.90
13642;DHT22;6894;52.196;9.904;2024-03-17T02:58:47;3.90;99.90
13642;DHT22;6894;52.196;9.904;2024-03-17T03:01:14;3.80;99.90
13642;DHT22;6894;52.196;9.904;2024-03-17T03:03:41;4.70;1.00
13642;DHT22;6894;52.196;9.904;2024-03-17T03:06:08;3.60;99.90
13642;DHT22;6894;52.196;9.904;2024-03-17T03:08:37;3.40;99.90
13642;DHT22;6894;52.196;9.904;2024-03-17T03:11:06;3.50;1.00
13642;DHT22;6894;52.196;9.904;2024-03-17T03:13:37;3.40;1.00
13642;DHT22;6894;52.196;9.904;2024-03-17T03:16:06;3.40;99.90
13642;DHT22;6894;52.196;9.904;2024-03-17T03:18:33;3.40;1.00
13642;DHT22;6894;52.196;9.904;2024-03-17T03:21:00;3.30;1.00
13642;DHT22;6894;52.196;9.904;2024-03-17T03:23:27;3.30;1.00
13642;DHT22;6894;52.196;9.904;2024-03-17T03:25:58;3.30;1.00
13642;DHT22;6894;52.196;9.904;2024-03-17T03:28:26;3.30;1.00
13642;DHT22;6894;52.196;9.904;2024-03-17T03:30:54;3.20;1.00
13642;DHT22;6894;52.196;9.904;2024-03-17T03:33:22;3.30;1.00
13642;DHT22;6894;52.196;9.904;2024-03-17T03:35:49;3.20;10.60
13642;DHT22;6894;52.196;9.904;2024-03-17T03:38:16;3.20;99.90
13642;DHT22;6894;52.196;9.904;2024-03-17T03:40:44;3.30;99.90
13642;DHT22;6894;52.196;9.904;2024-03-17T03:43:11;3.20;99.90
13642;DHT22;6894;52.196;9.904;2024-03-17T03:45:38;3.20;99.90
13642;DHT22;6894;52.196;9.904;2024-03-17T03:48:06;3.20;1.00
13642;DHT22;6894;52.196;9.904;2024-03-17T03:50:37;3.20;1.00
13642;DHT22;6894;52.196;9.904;2024-03-17T03:53:04;3.20;1.00
13642;DHT22;6894;52.196;9.904;2024-03-17T03:55:31;3.20;1.00
13642;DHT22;6894;52.196;9.904;2024-03-17T03:57:58;3.20;1.00
13642;DHT22;6894;52.196;9.904;2024-03-17T04:00:25;3.20;1.00
13642;DHT22;6894;52.196;9.904;2024-03-17T04:02:55;3.30;1.00
13642;DHT22;6894;52.196;9.904;2024-03-17T04:05:22;3.30;1.00
13642;DHT22;6894;52.196;9.904;2024-03-17T04:07:50;3.30;1.00
13642;DHT22;6894;52.196;9.904;2024-03-17T04:10:17;3.30;74.90
13642;DHT22;6894;52.196;9.904;2024-03-17T04:12:46;3.30;99.90
13642;DHT22;6894;52.196;9.904;2024-03-17T04:15:13;3.30;1.00
13642;DHT22;6894;52.196;9.904;2024-03-17T04:17:40;3.20;1.00
13642;DHT22;6894;52.196;9.904;2024-03-17T04:20:08;3.30;99.90
13642;DHT22;6894;52.196;9.904;2024-03-17T04:22:39;3.20;99.90
13642;DHT22;6894;52.196;9.904;2024-03-17T04:25:07;3.20;99.90
13642;DHT22;6894;52.196;9.904;2024-03-17T04:27:35;3.30;99.90
13642;DHT22;6894;52.196;9.904;2024-03-17T04:30:02;3.20;99.90
13642;DHT22;6894;52.196;9.904;2024-03-17T04:32:32;3.20;99.90
13642;DHT22;6894;52.196;9.904;2024-03-17T04:34:59;3.20;99.90
13642;DHT22;6894;52.196;9.904;2024-03-17T04:37:27;3.20;99.90
13642;DHT22;6894;52.196;9.904;2024-03-17T04:39:53;3.20;99.90
13642;DHT22;6894;52.196;9.904;2024-03-17T04:42:24;3.20;99.90
13642;DHT22;6894;52.196;9.904;2024-03-17T04:44:51;3.10;99.90
13642;DHT22;6894;52.196;9.904;2024-03-17T04:47:18;3.10;99.90
13642;DHT22;6894;52.196;9.904;2024-03-17T04:49:45;3.10;99.90
13642;DHT22;6894;52.196;9.904;2024-03-17T04:52:13;3.10;99.90
13642;DHT22;6894;52.196;9.904;2024-03-17T04:54:42;3.10;99.90
13642;DHT22;6894;52.196;9.904;2024-03-17T04:57:09;3.10;99.90
13642;DHT22;6894;52.196;9.904;2024-03-17T04:59:37;3.00;99.90
13642;DHT22;6894;52.196;9.904;2024-03-17T05:02:05;3.10;99.90
13642;DHT22;6894;52.196;9.904;2024-03-17T05:04:31;3.00;99.90
13642;DHT22;6894;52.196;9.904;2024-03-17T05:06:58;3.00;99.90
13642;DHT22;6894;52.196;9.904;2024-03-17T05:09:25;3.00;99.90
13642;DHT22;6894;52.196;9.904;2024-03-17T05:11:52;3.00;99.90
13642;DHT22;6894;52.196;9.904;2024-03-17T05:14:19;3.00;99.90
13642;DHT22;6894;52.196;9.904;2024-03-17T05:16:49;3.10;99.90
13642;DHT22;6894;52.196;9.904;2024-03-17T05:19:16;3.00;1.00
13642;DHT22;6894;52.196;9.904;2024-03-17T05:21:44;3.00;1.00
13642;DHT22;6894;52.196;9.904;2024-03-17T05:24:11;3.00;1.00
13642;DHT22;6894;52.196;9.904;2024-03-17T05:26:38;3.00;1.00
13642;DHT22;6894;52.196;9.904;2024-03-17T05:29:05;3.00;1.00
13642;DHT22;6894;52.196;9.904;2024-03-17T05:31:32;3.10;1.00
13642;DHT22;6894;52.196;9.904;2024-03-17T05:34:01;3.00;1.00
13642;DHT22;6894;52.196;9.904;2024-03-17T05:36:27;3.10;1.00
13642;DHT22;6894;52.196;9.904;2024-03-17T05:38:58;3.10;1.00
13642;DHT22;6894;52.196;9.904;2024-03-17T05:41:25;3.00;1.00
13642;DHT22;6894;52.196;9.904;2024-03-17T05:43:53;3.10;1.00
13642;DHT22;6894;52.196;9.904;2024-03-17T05:46:24;3.00;1.00
13642;DHT22;6894;52.196;9.904;2024-03-17T05:48:51;3.10;1.00
13642;DHT22;6894;52.196;9.904;2024-03-17T05:51:19;3.10;1.00
13642;DHT22;6894;52.196;9.904;2024-03-17T05:53:46;3.10;1.00
13642;DHT22;6894;52.196;9.904;2024-03-17T05:56:13;3.10;41.10
13642;DHT22;6894;52.196;9.904;2024-03-17T05:58:41;3.10;79.40
13642;DHT22;6894;52.196;9.904;2024-03-17T06:01:08;3.20;99.90
13642;DHT22;6894;52.196;9.904;2024-03-17T06:03:37;3.20;99.90
13642;DHT22;6894;52.196;9.904;2024-03-17T06:06:05;3.20;99.90
13642;DHT22;6894;52.196;9.904;2024-03-17T06:08:34;3.20;99.90
13642;DHT22;6894;52.196;9.904;2024-03-17T06:11:01;3.30;99.90
13642;DHT22;6894;52.196;9.904;2024-03-17T06:13:28;3.30;99.90
13642;DHT22;6894;52.196;9.904;2024-03-17T06:15:55;3.40;99.90
13642;DHT22;6894;52.196;9.904;2024-03-17T06:18:26;3.50;99.90
13642;DHT22;6894;52.196;9.904;2024-03-17T06:20:54;3.50;1.00
13642;DHT22;6894;52.196;9.904;2024-03-17T06:23:23;3.50;99.90
13642;DHT22;6894;52.196;9.904;2024-03-17T06:25:52;3.50;99.90
13642;DHT22;6894;52.196;9.904;2024-03-17T06:28:20;3.50;1.00
13642;DHT22;6894;52.196;9.904;2024-03-17T06:30:54;3.50;1.00
13642;DHT22;6894;52.196;9.904;2024-03-17T06:33:22;3.60;1.00
13642;DHT22;6894;52.196;9.904;2024-03-17T06:35:49;3.60;1.00
13642;DHT22;6894;52.196;9.904;2024-03-17T06:38:16;3.70;1.00
13642;DHT22;6894;52.196;9.904;2024-03-17T06:40:48;3.70;1.00
13642;DHT22;6894;52.196;9.904;2024-03-17T06:43:17;3.80;99.90
13642;DHT22;6894;52.196;9.904;2024-03-17T06:45:43;4.00;1.30
13642;DHT22;6894;52.196;9.904;2024-03-17T06:48:10;4.00;1.00
13642;DHT22;6894;52.196;9.904;2024-03-17T06:50:38;4.10;1.00
13642;DHT22;6894;52.196;9.904;2024-03-17T06:53:08;4.10;1.00
13642;DHT22;6894;52.196;9.904;2024-03-17T06:55:36;4.20;1.00
13642;DHT22;6894;52.196;9.904;2024-03-17T06:58:03;4.30;1.00
13642;DHT22;6894;52.196;9.904;2024-03-17T07:00:31;4.30;98.40
13642;DHT22;6894;52.196;9.904;2024-03-17T07:02:58;4.30;99.90
13642;DHT22;6894;52.196;9.904;2024-03-17T07:05:25;4.40;99.90
13642;DHT22;6894;52.196;9.904;2024-03-17T07:07:52;4.50;99.90
13642;DHT22;6894;52.196;9.904;2024-03-17T07:10:19;4.50;99.90
13642;DHT22;6894;52.196;9.904;2024-03-17T07:12:46;4.60;76.10
13642;DHT22;6894;52.196;9.904;2024-03-17T07:15:13;4.70;99.90
13642;DHT22;6894;52.196;9.904;2024-03-17T07:17:41;4.70;99.90
13642;DHT22;6894;52.196;9.904;2024-03-17T07:20:08;4.70;1.00
13642;DHT22;6894;52.196;9.904;2024-03-17T07:22:38;4.80;1.00
13642;DHT22;6894;52.196;9.904;2024-03-17T07:25:05;4.90;99.90
13642;DHT22;6894;52.196;9.904;2024-03-17T07:27:32;5.00;99.90
13642;DHT22;6894;52.196;9.904;2024-03-17T07:29:59;5.10;1.00
13642;DHT22;6894;52.196;9.904;2024-03-17T07:32:26;5.30;1.00
13642;DHT22;6894;52.196;9.904;2024-03-17T07:34:54;5.30;99.90
13642;DHT22;6894;52.196;9.904;2024-03-17T07:37:21;5.40;60.20
13642;DHT22;6894;52.196;9.904;2024-03-17T07:39:48;5.60;5.40
13642;DHT22;6894;52.196;9.904;2024-03-17T07:42:15;5.80;4.00
13642;DHT22;6894;52.196;9.904;2024-03-17T07:44:44;5.90;1.00
13642;DHT22;6894;52.196;9.904;2024-03-17T07:47:11;6.00;99.90
13642;DHT22;6894;52.196;9.904;2024-03-17T07:49:38;6.20;99.90
13642;DHT22;6894;52.196;9.904;2024-03-17T07:52:06;6.40;99.90
13642;DHT22;6894;52.196;9.904;2024-03-17T07:54:33;6.70;10.10
13642;DHT22;6894;52.196;9.904;2024-03-17T07:57:01;6.90;1.00
13642;DHT22;6894;52.196;9.904;2024-03-17T07:59:28;7.20;1.00
13642;DHT22;6894;52.196;9.904;2024-03-17T08:01:56;7.50;1.00
13642;DHT22;6894;52.196;9.904;2024-03-17T08:04:23;7.70;99.90
13642;DHT22;6894;52.196;9.904;2024-03-17T08:06:50;7.90;1.00
13642;DHT22;6894;52.196;9.904;2024-03-17T08:09:18;8.30;99.90
13642;DHT22;6894;52.196;9.904;2024-03-17T08:11:45;8.70;1.00
13642;DHT22;6894;52.196;9.904;2024-03-17T08:14:13;8.80;1.00
13642;DHT22;6894;52.196;9.904;2024-03-17T08:16:41;9.00;1.00
13642;DHT22;6894;52.196;9.904;2024-03-17T08:19:08;9.30;99.90
13642;DHT22;6894;52.196;9.904;2024-03-17T08:21:35;9.60;1.00
13642;DHT22;6894;52.196;9.904;2024-03-17T08:24:01;9.80;1.00
13642;DHT22;6894;52.196;9.904;2024-03-17T08:26:30;10.20;99.90
13642;DHT22;6894;52.196;9.904;2024-03-17T08:28:57;10.30;1.00
13642;DHT22;6894;52.196;9.904;2024-03-17T08:31:24;10.50;99.90
13642;DHT22;6894;52.196;9.904;2024-03-17T08:33:51;10.60;99.90
13642;DHT22;6894;52.196;9.904;2024-03-17T08:36:18;10.90;51.30
13642;DHT22;6894;52.196;9.904;2024-03-17T08:38:46;11.40;1.00
13642;DHT22;6894;52.196;9.904;2024-03-17T08:41:14;11.90;99.90
13642;DHT22;6894;52.196;9.904;2024-03-17T08:43:43;12.00;99.90
13642;DHT22;6894;52.196;9.904;2024-03-17T08:46:11;12.00;1.00
13642;DHT22;6894;52.196;9.904;2024-03-17T08:48:40;11.90;99.90
13642;DHT22;6894;52.196;9.904;2024-03-17T08:51:08;11.70;1.00
13642;DHT22;6894;52.196;9.904;2024-03-17T08:53:36;11.90;99.90
13642;DHT22;6894;52.196;9.904;2024-03-17T08:56:04;11.60;1.00
13642;DHT22;6894;52.196;9.904;2024-03-17T08:58:32;11.60;99.90
13642;DHT22;6894;52.196;9.904;2024-03-17T09:01:03;11.60;1.00
13642;DHT22;6894;52.196;9.904;2024-03-17T09:03:30;11.70;99.90
13642;DHT22;6894;52.196;9.904;2024-03-17T09:05:57;11.70;1.00
13642;DHT22;6894;52.196;9.904;2024-03-17T09:08:24;11.90;1.00
13642;DHT22;6894;52.196;9.904;2024-03-17T09:10:52;12.10;99.90
13642;DHT22;6894;52.196;9.904;2024-03-17T09:13:21;12.60;99.90
13642;DHT22;6894;52.196;9.904;2024-03-17T09:15:53;12.80;99.90
13642;DHT22;6894;52.196;9.904;2024-03-17T09:18:22;13.20;1.00
13642;DHT22;6894;52.196;9.904;2024-03-17T09:20:56;13.30;1.00
13642;DHT22;6894;52.196;9.904;2024-03-17T09:23:23;13.00;99.90
13642;DHT22;6894;52.196;9.904;2024-03-17T09:25:56;12.80;1.00
13642;DHT22;6894;52.196;9.904;2024-03-17T09:28:23;12.90;99.90
13642;DHT22;6894;52.196;9.904;2024-03-17T09:30:49;13.00;1.00
13642;DHT22;6894;52.196;9.904;2024-03-17T09:33:18;13.40;1.00
13642;DHT22;6894;52.196;9.904;2024-03-17T09:35:54;13.90;1.00
13642;DHT22;6894;52.196;9.904;2024-03-17T09:38:22;14.10;1.00
13642;DHT22;6894;52.196;9.904;2024-03-17T09:40:49;14.00;39.00
13642;DHT22;6894;52.196;9.904;2024-03-17T09:43:19;14.10;99.90
13642;DHT22;6894;52.196;9.904;2024-03-17T09:45:46;14.20;99.90
13642;DHT22;6894;52.196;9.904;2024-03-17T09:48:15;14.50;64.50
13642;DHT22;6894;52.196;9.904;2024-03-17T09:50:47;14.70;1.00
13642;DHT22;6894;52.196;9.904;2024-03-17T09:53:17;14.80;1.00
13642;DHT22;6894;52.196;9.904;2024-03-17T09:55:49;14.50;1.00
13642;DHT22;6894;52.196;9.904;2024-03-17T09:58:16;14.30;1.00
13642;DHT22;6894;52.196;9.904;2024-03-17T10:00:43;13.90;1.00
13642;DHT22;6894;52.196;9.904;2024-03-17T10:03:10;13.50;1.00
13642;DHT22;6894;52.196;9.904;2024-03-17T10:05:38;13.30;1.00
13642;DHT22;6894;52.196;9.904;2024-03-17T10:08:05;13.30;1.00
13642;DHT22;6894;52.196;9.904;2024-03-17T10:10:35;13.40;18.60
13642;DHT22;6894;52.196;9.904;2024-03-17T10:13:02;13.60;64.00
13642;DHT22;6894;52.196;9.904;2024-03-17T10:15:28;13.50;1.00
13642;DHT22;6894;52.196;9.904;2024-03-17T10:17:56;13.30;1.00
13642;DHT22;6894;52.196;9.904;2024-03-17T10:20:24;13.10;1.00
13642;DHT22;6894;52.196;9.904;2024-03-17T10:22:58;12.90;1.00
13642;DHT22;6894;52.196;9.904;2024-03-17T10:25:26;12.80;1.00
13642;DHT22;6894;52.196;9.904;2024-03-17T10:27:55;12.70;15.60
13642;DHT22;6894;52.196;9.904;2024-03-17T10:30:22;12.90;1.00
13642;DHT22;6894;52.196;9.904;2024-03-17T10:32:55;12.80;1.00
13642;DHT22;6894;52.196;9.904;2024-03-17T10:35:30;13.00;55.10
13642;DHT22;6894;52.196;9.904;2024-03-17T10:37:58;13.10;1.00
13642;DHT22;6894;52.196;9.904;2024-03-17T10:40:26;13.20;1.00
13642;DHT22;6894;52.196;9.904;2024-03-17T10:42:57;13.10;1.00
13642;DHT22;6894;52.196;9.904;2024-03-17T10:45:25;13.30;1.00
13642;DHT22;6894;52.196;9.904;2024-03-17T10:47:53;13.10;1.00
13642;DHT22;6894;52.196;9.904;2024-03-17T10:50:21;13.20;1.00
13642;DHT22;6894;52.196;9.904;2024-03-17T10:52:50;13.20;1.00
13642;DHT22;6894;52.196;9.904;2024-03-17T10:55:22;13.60;1.00
13642;DHT22;6894;52.196;9.904;2024-03-17T10:57:50;13.80;1.00
13642;DHT22;6894;52.196;9.904;2024-03-17T11:00:21;13.90;1.00
13642;DHT22;6894;52.196;9.904;2024-03-17T11:02:49;14.10;1.00
13642;DHT22;6894;52.196;9.904;2024-03-17T11:05:19;14.60;1.00
13642;DHT22;6894;52.196;9.904;2024-03-17T11:07:49;15.20;1.00
13642;DHT22;6894;52.196;9.904;2024-03-17T11:10:19;15.50;1.00
13642;DHT22;6894;52.196;9.904;2024-03-17T11:12:48;15.60;1.00
13642;DHT22;6894;52.196;9.904;2024-03-17T11:15:40;16.00;1.00
13642;DHT22;6894;52.196;9.904;2024-03-17T11:18:36;16.30;1.00
13642;DHT22;6894;52.196;9.904;2024-03-17T11:21:10;16.80;1.00
13642;DHT22;6894;52.196;9.904;2024-03-17T11:23:55;17.00;1.00
13642;DHT22;6894;52.196;9.904;2024-03-17T11:26:27;17.40;1.00
13642;DHT22;6894;52.196;9.904;2024-03-17T11:28:54;17.30;1.00
13642;DHT22;6894;52.196;9.904;2024-03-17T11:31:42;17.20;1.00
13642;DHT22;6894;52.196;9.904;2024-03-17T11:34:33;16.60;1.00
13642;DHT22;6894;52.196;9.904;2024-03-17T11:37:02;16.60;1.00
13642;DHT22;6894;52.196;9.904;2024-03-17T11:39:50;15.90;1.00
13642;DHT22;6894;52.196;9.904;2024-03-17T11:42:18;16.40;1.00
13642;DHT22;6894;52.196;9.904;2024-03-17T11:45:02;16.40;1.00
13642;DHT22;6894;52.196;9.904;2024-03-17T11:47:35;16.80;1.00
13642;DHT22;6894;52.196;9.904;2024-03-17T11:50:04;17.30;1.00
13642;DHT22;6894;52.196;9.904;2024-03-17T11:52:30;17.50;1.00
13642;DHT22;6894;52.196;9.904;2024-03-17T11:54:57;17.60;1.00
13642;DHT22;6894;52.196;9.904;2024-03-17T11:57:23;17.30;1.00
13642;DHT22;6894;52.196;9.904;2024-03-17T11:59:51;17.20;1.00
13642;DHT22;6894;52.196;9.904;2024-03-17T12:02:20;17.20;1.00
13642;DHT22;6894;52.196;9.904;2024-03-17T12:04:49;17.10;1.00
13642;DHT22;6894;52.196;9.904;2024-03-17T12:07:17;17.20;1.00
13642;DHT22;6894;52.196;9.904;2024-03-17T12:09:44;17.80;1.00
13642;DHT22;6894;52.196;9.904;2024-03-17T12:12:16;18.30;1.00
13642;DHT22;6894;52.196;9.904;2024-03-17T12:14:43;18.50;1.00
13642;DHT22;6894;52.196;9.904;2024-03-17T12:17:12;18.80;1.00
13642;DHT22;6894;52.196;9.904;2024-03-17T12:19:39;18.90;1.00
13642;DHT22;6894;52.196;9.904;2024-03-17T12:22:15;18.80;1.00
13642;DHT22;6894;52.196;9.904;2024-03-17T12:24:44;18.40;1.00
13642;DHT22;6894;52.196;9.904;2024-03-17T12:27:17;17.60;1.00
13642;DHT22;6894;52.196;9.904;2024-03-17T12:29:44;17.40;1.00
13642;DHT22;6894;52.196;9.904;2024-03-17T12:32:13;17.40;1.00
13642;DHT22;6894;52.196;9.904;2024-03-17T12:34:40;17.00;1.00
13642;DHT22;6894;52.196;9.904;2024-03-17T12:37:15;16.50;1.00
13642;DHT22;6894;52.196;9.904;2024-03-17T12:39:42;15.90;1.00
13642;DHT22;6894;52.196;9.904;2024-03-17T12:42:10;15.80;1.00
13642;DHT22;6894;52.196;9.904;2024-03-17T12:44:38;15.60;1.00
13642;DHT22;6894;52.196;9.904;2024-03-17T12:47:09;16.20;1.00
13642;DHT22;6894;52.196;9.904;2024-03-17T12:49:44;16.40;1.00
13642;DHT22;6894;52.196;9.904;2024-03-17T12:52:18;16.70;1.00
13642;DHT22;6894;52.196;9.904;2024-03-17T12:54:45;17.20;1.00
13642;DHT22;6894;52.196;9.904;2024-03-17T12:57:41;17.30;1.00
13642;DHT22;6894;52.196;9.904;2024-03-17T13:00:26;17.60;1.00
13642;DHT22;6894;52.196;9.904;2024-03-17T13:02:59;17.30;1.00
13642;DHT22;6894;52.196;9.904;2024-03-17T13:05:26;17.50;1.00
13642;DHT22;6894;52.196;9.904;2024-03-17T13:07:55;17.80;1.00
13642;DHT22;6894;52.196;9.904;2024-03-17T13:10:23;17.80;1.00
13642;DHT22;6894;52.196;9.904;2024-03-17T13:12:59;17.60;1.00
13642;DHT22;6894;52.196;9.904;2024-03-17T13:15:26;17.40;1.00
13642;DHT22;6894;52.196;9.904;2024-03-17T13:17:54;17.60;1.00
13642;DHT22;6894;52.196;9.904;2024-03-17T13:20:21;18.00;1.00
13642;DHT22;6894;52.196;9.904;2024-03-17T13:22:47;17.70;1.00
13642;DHT22;6894;52.196;9.904;2024-03-17T13:25:16;18.10;1.00
13642;DHT22;6894;52.196;9.904;2024-03-17T13:27:45;18.20;1.00
13642;DHT22;6894;52.196;9.904;2024-03-17T13:30:12;18.20;1.00
13642;DHT22;6894;52.196;9.904;2024-03-17T13:32:39;18.40;1.00
13642;DHT22;6894;52.196;9.904;2024-03-17T13:35:14;18.80;1.00
13642;DHT22;6894;52.196;9.904;2024-03-17T13:37:42;19.20;1.00
13642;DHT22;6894;52.196;9.904;2024-03-17T13:40:09;19.00;1.00
13642;DHT22;6894;52.196;9.904;2024-03-17T13:42:39;19.10;1.00
13642;DHT22;6894;52.196;9.904;2024-03-17T13:45:09;19.00;1.00
13642;DHT22;6894;52.196;9.904;2024-03-17T13:47:37;18.90;1.00
13642;DHT22;6894;52.196;9.904;2024-03-17T13:50:05;18.80;1.00
13642;DHT22;6894;52.196;9.904;2024-03-17T13:52:36;18.60;1.00
13642;DHT22;6894;52.196;9.904;2024-03-17T13:55:03;18.60;1.00
13642;DHT22;6894;52.196;9.904;2024-03-17T13:57:32;18.70;1.00
13642;DHT22;6894;52.196;9.904;2024-03-17T14:00:00;18.70;1.00
13642;DHT22;6894;52.196;9.904;2024-03-17T14:02:28;19.10;1.00
13642;DHT22;6894;52.196;9.904;2024-03-17T14:04:54;19.40;1.00
13642;DHT22;6894;52.196;9.904;2024-03-17T14:07:21;19.40;1.00
13642;DHT22;6894;52.196;9.904;2024-03-17T14:09:48;19.30;1.00
13642;DHT22;6894;52.196;9.904;2024-03-17T14:12:15;19.40;1.00
13642;DHT22;6894;52.196;9.904;2024-03-17T14:14:42;19.60;1.00
13642;DHT22;6894;52.196;9.904;2024-03-17T14:19:46;19.10;1.00
13642;DHT22;6894;52.196;9.904;2024-03-17T14:22:13;18.80;1.00
13642;DHT22;6894;52.196;9.904;2024-03-17T14:24:40;18.40;1.00
13642;DHT22;6894;52.196;9.904;2024-03-17T14:27:07;18.60;1.00
13642;DHT22;6894;52.196;9.904;2024-03-17T14:29:35;18.70;1.00
13642;DHT22;6894;52.196;9.904;2024-03-17T14:32:03;18.90;1.00
13642;DHT22;6894;52.196;9.904;2024-03-17T14:34:30;19.00;1.00
13642;DHT22;6894;52.196;9.904;2024-03-17T14:37:02;19.00;1.00
13642;DHT22;6894;52.196;9.904;2024-03-17T14:39:29;18.90;1.00
13642;DHT22;6894;52.196;9.904;2024-03-17T14:41:56;19.20;1.00
13642;DHT22;6894;52.196;9.904;2024-03-17T14:44:23;19.10;1.00
13642;DHT22;6894;52.196;9.904;2024-03-17T14:46:50;19.00;1.00
13642;DHT22;6894;52.196;9.904;2024-03-17T14:49:18;18.80;1.00
13642;DHT22;6894;52.196;9.904;2024-03-17T14:51:45;18.40;1.00
13642;DHT22;6894;52.196;9.904;2024-03-17T14:54:13;18.30;1.00
13642;DHT22;6894;52.196;9.904;2024-03-17T14:56:40;18.10;1.00
13642;DHT22;6894;52.196;9.904;2024-03-17T14:59:07;18.10;1.00
13642;DHT22;6894;52.196;9.904;2024-03-17T15:01:34;17.90;1.00
13642;DHT22;6894;52.196;9.904;2024-03-17T15:04:01;17.80;1.00
13642;DHT22;6894;52.196;9.904;2024-03-17T15:06:28;17.70;1.00
13642;DHT22;6894;52.196;9.904;2024-03-17T15:08:56;17.80;1.00
13642;DHT22;6894;52.196;9.904;2024-03-17T15:11:24;17.70;1.00
13642;DHT22;6894;52.196;9.904;2024-03-17T15:13:51;17.70;1.00
13642;DHT22;6894;52.196;9.904;2024-03-17T15:16:18;17.50;1.00
13642;DHT22;6894;52.196;9.904;2024-03-17T15:18:45;17.50;1.00
13642;DHT22;6894;52.196;9.904;2024-03-17T15:21:12;17.30;1.00
13642;DHT22;6894;52.196;9.904;2024-03-17T15:23:39;16.80;1.00
13642;DHT22;6894;52.196;9.904;2024-03-17T15:26:07;16.50;1.00
13642;DHT22;6894;52.196;9.904;2024-03-17T15:28:36;16.10;1.00
13642;DHT22;6894;52.196;9.904;2024-03-17T15:31:05;15.90;1.00
13642;DHT22;6894;52.196;9.904;2024-03-17T15:33:32;15.50;1.00
13642;DHT22;6894;52.196;9.904;2024-03-17T15:36:02;15.30;1.00
13642;DHT22;6894;52.196;9.904;2024-03-17T15:38:30;15.30;1.00
13642;DHT22;6894;52.196;9.904;2024-03-17T15:40:58;15.10;1.00
13642;DHT22;6894;52.196;9.904;2024-03-17T15:43:25;15.00;1.00
13642;DHT22;6894;52.196;9.904;2024-03-17T15:45:54;14.70;1.00
13642;DHT22;6894;52.196;9.904;2024-03-17T15:48:21;14.40;1.00
13642;DHT22;6894;52.196;9.904;2024-03-17T15:50:54;14.10;1.00
13642;DHT22;6894;52.196;9.904;2024-03-17T15:53:21;13.90;1.00
13642;DHT22;6894;52.196;9.904;2024-03-17T15:55:53;13.70;1.00
13642;DHT22;6894;52.196;9.904;2024-03-17T15:58:20;13.50;1.00
13642;DHT22;6894;52.196;9.904;2024-03-17T16:00:47;13.40;1.00
13642;DHT22;6894;52.196;9.904;2024-03-17T16:03:16;13.30;1.00
13642;DHT22;6894;52.196;9.904;2024-03-17T16:05:45;13.30;1.00
13642;DHT22;6894;52.196;9.904;2024-03-17T16:08:13;13.10;1.00
13642;DHT22;6894;52.196;9.904;2024-03-17T16:10:41;13.00;1.00
13642;DHT22;6894;52.196;9.904;2024-03-17T16:13:08;12.80;1.00
13642;DHT22;6894;52.196;9.904;2024-03-17T16:15:35;12.60;1.00